»·PEaware :: SWA2754 KSEA-KPHX

SWA2754 :: KSEA-KPHX

FLIGHT INFORMATION

Flight Status: Arrived
Operator:
Southwest Airlines
More flights by this operator :: More flights under this callsign
Pilot: Mike B. (19113)
Aircraft: BOEING 737-800
(B738)
More flights by this aircraft type
Origin: KSEA Seattle-Tacoma Intl
United States
Destination: KPHX Phoenix Sky Harbor Intl
United States
More flights between these airports :: More routes between these airports
Route: +SUMMA1 SUMMA LTJ IMB NEERO WINEN CORKR TENTS BRUSR1
File this flight plan on PilotEdge
Remarks:
Altitude:
(Current/Filed)
35,000ft
Speed:
(Current/Filed)
462kts
Departed: 06-May-18 09:47 AM
Arrived: 06-May-18 12:10 PM
Distance/Time
Traveled:
962nm/2:23
Distance/Time
To Go:
Arrived

Flight Plot

Page will automatically refresh every two minutes.

Flight plan parsing failed; only flown route is shown


Map Options




Map Legend


Flown Route
Filed Route
Departure Airport
Arrival Airport
Navaid (VOR, NDB)
Fix

Horizontal Profiles

Position Reports

Time Latitude Longitude Heading Altitude Ground
Speed
06-May-18 09:23 47.441245 -122.303155 289 440ft 0kts
06-May-18 09:24 47.441245 -122.303155 289 440ft 0kts
06-May-18 09:25 47.441245 -122.303155 289 440ft 0kts
06-May-18 09:26 47.441245 -122.303155 289 440ft 0kts
06-May-18 09:27 47.441245 -122.303155 289 440ft 0kts
06-May-18 09:28 47.441245 -122.303155 289 440ft 0kts
06-May-18 09:29 47.441245 -122.303155 289 440ft 0kts
06-May-18 09:30 47.441245 -122.303155 289 440ft 0kts
06-May-18 09:31 47.441245 -122.303155 289 440ft 0kts
06-May-18 09:32 47.441245 -122.303155 289 440ft 0kts
06-May-18 09:33 47.441210 -122.302629 236 440ft 2kts
06-May-18 09:34 47.441440 -122.302510 174 440ft 0kts
06-May-18 09:35 47.441440 -122.302510 174 440ft 0kts
06-May-18 09:36 47.441440 -122.302510 174 440ft 0kts
06-May-18 09:36 47.441361 -122.302498 174 440ft 3kts
06-May-18 09:37 47.439890 -122.304649 268 440ft 11kts
06-May-18 09:38 47.442020 -122.306336 359 440ft 11kts
06-May-18 09:39 47.447449 -122.306291 0 440ft 21kts
06-May-18 09:40 47.452375 -122.306256 359 440ft 17kts
06-May-18 09:42 47.458369 -122.306200 0 440ft 19kts
06-May-18 09:43 47.463173 -122.306151 0 440ft 11kts
06-May-18 09:43 47.463645 -122.306403 314 440ft 0kts
06-May-18 09:44 47.463242 -122.307772 182 440ft 6kts
06-May-18 09:45 47.463160 -122.307775 181 440ft 0kts
06-May-18 09:46 47.456720 -122.307870 180 441ft 118kts
06-May-18 09:47 47.405838 -122.307672 180 2952ft 190kts
06-May-18 09:48 47.342274 -122.308511 179 4569ft 248kts
06-May-18 09:49 47.272813 -122.309410 179 7194ft 252kts
06-May-18 09:50 47.201408 -122.278820 155 9610ft 281kts
06-May-18 09:51 47.123938 -122.238493 161 11536ft 325kts
06-May-18 09:52 47.030500 -122.192115 161 13107ft 371kts
06-May-18 09:53 46.931495 -122.143086 162 15884ft 378kts
06-May-18 09:54 46.830719 -122.092847 162 18403ft 387kts
06-May-18 09:55 46.726952 -122.041783 162 20493ft 400kts
06-May-18 09:56 46.620604 -121.985325 154 22401ft 412kts
06-May-18 09:57 46.522846 -121.893761 147 24083ft 424kts
06-May-18 09:58 46.424261 -121.795922 146 25639ft 432kts
06-May-18 09:59 46.324115 -121.696916 146 27022ft 439kts
06-May-18 10:00 46.222773 -121.596502 146 28421ft 441kts
06-May-18 10:01 46.121834 -121.497290 146 30075ft 435kts
06-May-18 10:02 46.021732 -121.399419 146 31390ft 435kts
06-May-18 10:03 45.921722 -121.301732 147 32599ft 435kts
06-May-18 10:04 45.821062 -121.204323 147 33699ft 436kts
06-May-18 10:05 45.720839 -121.106963 144 34711ft 438kts
06-May-18 10:06 45.629773 -120.989205 139 35029ft 442kts
06-May-18 10:07 45.539788 -120.869911 139 35032ft 441kts
06-May-18 10:08 45.450034 -120.751292 139 35036ft 440kts
06-May-18 10:09 45.359906 -120.631857 139 35036ft 446kts
06-May-18 10:10 45.284039 -120.532070 139 35043ft 446kts
06-May-18 10:11 45.192737 -120.412613 139 35043ft 447kts
06-May-18 10:13 45.100897 -120.293035 140 35049ft 447kts
06-May-18 10:14 45.008226 -120.172770 140 35064ft 457kts
06-May-18 10:15 44.914179 -120.052140 141 35060ft 457kts
06-May-18 10:16 44.819818 -119.929946 140 35068ft 460kts
06-May-18 10:17 44.725531 -119.809394 141 35085ft 456kts
06-May-18 10:18 44.626962 -119.700293 154 35096ft 451kts
06-May-18 10:19 44.512977 -119.626177 159 35113ft 451kts
06-May-18 10:20 44.398758 -119.555863 159 35119ft 449kts
06-May-18 10:21 44.284090 -119.485216 159 35126ft 452kts
06-May-18 10:22 44.168975 -119.413626 159 35134ft 451kts
06-May-18 10:23 44.054098 -119.343179 159 35126ft 451kts
06-May-18 10:24 43.939256 -119.272590 160 35120ft 452kts
06-May-18 10:25 43.823890 -119.202458 160 35113ft 450kts
06-May-18 10:26 43.710471 -119.133652 160 35112ft 445kts
06-May-18 10:27 43.596716 -119.064896 161 35110ft 445kts
06-May-18 10:28 43.483247 -118.996589 161 35109ft 446kts
06-May-18 10:29 43.369307 -118.928280 161 35108ft 446kts
06-May-18 10:30 43.255667 -118.860427 161 35104ft 446kts
06-May-18 10:31 43.141809 -118.792726 162 35099ft 446kts
06-May-18 10:32 43.027460 -118.725000 162 35088ft 447kts
06-May-18 10:33 42.913280 -118.657653 162 35080ft 447kts
06-May-18 10:34 42.798956 -118.590493 162 35073ft 448kts
06-May-18 10:35 42.684036 -118.523256 163 35067ft 449kts
06-May-18 10:36 42.569501 -118.456511 163 35064ft 449kts
06-May-18 10:37 42.454486 -118.389755 163 35064ft 448kts
06-May-18 10:38 42.339897 -118.323514 164 35063ft 448kts
06-May-18 10:39 42.225350 -118.257555 164 35065ft 448kts
06-May-18 10:40 42.110199 -118.191479 164 35065ft 448kts
06-May-18 10:41 41.995555 -118.125837 164 35069ft 448kts
06-May-18 10:42 41.880863 -118.060672 164 35076ft 448kts
06-May-18 10:43 41.773510 -117.969723 145 35082ft 470kts
06-May-18 10:44 41.678014 -117.849985 144 35085ft 471kts
06-May-18 10:45 41.582459 -117.730608 144 35089ft 470kts
06-May-18 10:46 41.486749 -117.610711 144 35093ft 472kts
06-May-18 10:47 41.391005 -117.491535 144 35097ft 471kts
06-May-18 10:48 41.294823 -117.372497 145 35100ft 471kts
06-May-18 10:49 41.198893 -117.254332 145 35101ft 471kts
06-May-18 10:50 41.102852 -117.136543 145 35103ft 470kts
06-May-18 10:51 41.006410 -117.018765 145 35104ft 470kts
06-May-18 10:52 40.910245 -116.901813 145 35106ft 470kts
06-May-18 10:53 40.813970 -116.785211 145 35113ft 470kts
06-May-18 10:54 40.717299 -116.668615 145 35113ft 470kts
06-May-18 10:55 40.620887 -116.552802 145 35116ft 469kts
06-May-18 10:56 40.524062 -116.436969 145 35121ft 469kts
06-May-18 10:57 40.427481 -116.321901 145 35129ft 469kts
06-May-18 10:58 40.330837 -116.207219 145 35137ft 469kts
06-May-18 10:59 40.233767 -116.092497 146 35148ft 469kts
06-May-18 11:00 40.136929 -115.978510 146 35160ft 469kts
06-May-18 11:01 40.040042 -115.864920 146 35175ft 469kts
06-May-18 11:02 39.942726 -115.751281 146 35186ft 468kts
06-May-18 11:03 39.845644 -115.638366 146 35192ft 468kts
06-May-18 11:04 39.747951 -115.525191 146 35197ft 469kts
06-May-18 11:05 39.650442 -115.412672 146 35206ft 469kts
06-May-18 11:06 39.552743 -115.300376 145 35222ft 470kts
06-May-18 11:07 39.454513 -115.187912 145 35239ft 470kts
06-May-18 11:08 39.356334 -115.075948 145 35252ft 471kts
06-May-18 11:09 39.258057 -114.964308 145 35258ft 471kts
06-May-18 11:10 39.159388 -114.852657 145 35244ft 471kts
06-May-18 11:11 39.060906 -114.741648 145 35237ft 472kts
06-May-18 11:12 38.961879 -114.630453 145 35233ft 471kts
06-May-18 11:13 38.862972 -114.519823 145 35228ft 472kts
06-May-18 11:14 38.763909 -114.409444 145 35224ft 472kts
06-May-18 11:15 38.664476 -114.299068 145 35226ft 472kts
06-May-18 11:16 38.565129 -114.189210 145 35224ft 473kts
06-May-18 11:17 38.465255 -114.079183 145 35221ft 473kts
06-May-18 11:18 38.365614 -113.969829 145 35233ft 473kts
06-May-18 11:19 38.265733 -113.860620 145 35240ft 474kts
06-May-18 11:20 38.165490 -113.751290 145 35243ft 474kts
06-May-18 11:21 38.065499 -113.642636 145 35248ft 473kts
06-May-18 11:22 37.965341 -113.534571 146 35245ft 472kts
06-May-18 11:23 37.854159 -113.451109 160 35254ft 461kts
06-May-18 11:24 37.738488 -113.381387 160 35262ft 461kts
06-May-18 11:25 37.622492 -113.311379 160 35269ft 461kts
06-May-18 11:26 37.506956 -113.241361 160 35264ft 461kts
06-May-18 11:27 37.391189 -113.171582 159 35254ft 462kts
06-May-18 11:28 37.274902 -113.101773 159 35253ft 462kts
06-May-18 11:29 37.158940 -113.032408 159 35276ft 462kts
06-May-18 11:30 37.042975 -112.963282 159 35295ft 462kts
06-May-18 11:31 36.926610 -112.894154 159 35301ft 462kts
06-May-18 11:32 36.810432 -112.825373 159 35306ft 463kts
06-May-18 11:33 36.693802 -112.756552 159 35317ft 463kts
06-May-18 11:34 36.577506 -112.688159 159 35330ft 463kts
06-May-18 11:35 36.461224 -112.620001 159 35326ft 462kts
06-May-18 11:36 36.344550 -112.551731 159 35341ft 462kts
06-May-18 11:37 36.228200 -112.483961 159 35361ft 462kts
06-May-18 11:38 36.111395 -112.418185 166 35379ft 457kts
06-May-18 11:39 35.987501 -112.408758 188 35398ft 444kts
06-May-18 11:40 35.864191 -112.419553 188 35399ft 445kts
06-May-18 11:41 35.740443 -112.430383 188 35319ft 446kts
06-May-18 11:42 35.617201 -112.441096 187 32566ft 446kts
06-May-18 11:43 35.492472 -112.449087 180 29876ft 453kts
06-May-18 11:44 35.363599 -112.426678 174 29475ft 475kts
06-May-18 11:45 35.233609 -112.401124 174 29381ft 473kts
06-May-18 11:46 35.105497 -112.374196 173 29356ft 447kts
06-May-18 11:47 34.982702 -112.347529 172 26474ft 446kts
06-May-18 11:48 34.860711 -112.321162 172 24813ft 443kts
06-May-18 11:49 34.743555 -112.295359 171 23253ft 402kts
06-May-18 11:50 34.639941 -112.272572 171 21868ft 358kts
06-May-18 11:51 34.545421 -112.251881 171 20599ft 340kts
06-May-18 11:52 34.451993 -112.231468 170 19348ft 338kts
06-May-18 11:53 34.360006 -112.207907 168 17923ft 336kts
06-May-18 11:54 34.269593 -112.184401 168 16522ft 329kts
06-May-18 11:55 34.180529 -112.161395 168 15120ft 323kts
06-May-18 11:56 34.093403 -112.140013 174 13752ft 315kts
06-May-18 11:57 34.009898 -112.145391 185 12862ft 295kts
06-May-18 11:58 33.928943 -112.154646 184 11679ft 288kts
06-May-18 11:58 33.864024 -112.165911 189 10938ft 276kts
06-May-18 11:59 33.788793 -112.182334 188 9898ft 265kts
06-May-18 12:00 33.717439 -112.197456 188 8762ft 245kts
06-May-18 12:01 33.651769 -112.211308 188 7831ft 237kts
06-May-18 12:02 33.587047 -112.224965 188 6766ft 234kts
06-May-18 12:03 33.523687 -112.238608 188 5739ft 228kts
06-May-18 12:04 33.462223 -112.244741 150 4625ft 224kts
06-May-18 12:05 33.441000 -112.177776 93 3583ft 215kts
06-May-18 12:06 33.440825 -112.115810 92 2585ft 168kts
06-May-18 12:07 33.440773 -112.062847 92 1711ft 155kts
06-May-18 12:08 33.440795 -112.012836 87 1143ft 100kts
06-May-18 12:09 33.440347 -112.004770 147 1143ft 0kts
06-May-18 12:10 33.438857 -112.003773 181 1143ft 4kts
06-May-18 12:11 33.436766 -112.003791 179 1143ft 19kts
06-May-18 12:12 33.432818 -112.003063 94 1143ft 11kts
06-May-18 12:13 33.432822 -111.998424 88 1143ft 12kts
06-May-18 12:14 33.433886 -111.995662 15 1143ft 7kts
06-May-18 12:15 33.434052 -111.994949 90 1143ft 0kts

Navigation Log

Ident Type
Flight plan parsing failed, navigation log unavailable